ENY3639 KCLT-KHXD
Flight info
| Callsign | ENY3639 |
|---|---|
| Flight time | 0h 36m |
| Altitude | 20000 |
| Route | ICONS5 NOOKS CAE CANTR PLZZZ |
| Aircraft | E75L/M-SDE3GILORVW/S |
Departure
| Time | 2026-05-06 22:37 |
|---|---|
| Airport | Charlotte Douglas International Airport (KCLT) |
Arrival
| Time | 2026-05-06 23:14 |
|---|---|
| Airport | Hilton Head Airport (KHXD) |
| Time | Latitude | Longitude | Altitude | Speed | Heading |
|---|---|---|---|---|---|
| 2026-05-06 22:23 | 35.22363 | -80.93876 | 730 ft | 0 kts | 266° |
| 2026-05-06 22:25 | 35.22364 | -80.93869 | 729 ft | 4 kts | 264° |
| 2026-05-06 22:25 | 35.22372 | -80.93840 | 731 ft | 4 kts | 225° |
| 2026-05-06 22:26 | 35.22391 | -80.93831 | 730 ft | 1 kts | 176° |
| 2026-05-06 22:28 | 35.22371 | -80.93829 | 730 ft | 7 kts | 175° |
| 2026-05-06 22:28 | 35.22296 | -80.93822 | 730 ft | 14 kts | 176° |
| 2026-05-06 22:28 | 35.22211 | -80.93815 | 730 ft | 13 kts | 176° |
| 2026-05-06 22:28 | 35.22152 | -80.93810 | 730 ft | 13 kts | 176° |
| 2026-05-06 22:29 | 35.22063 | -80.93803 | 730 ft | 15 kts | 178° |
| 2026-05-06 22:29 | 35.21984 | -80.93826 | 730 ft | 15 kts | 225° |
| 2026-05-06 22:29 | 35.21912 | -80.93927 | 729 ft | 16 kts | 229° |
| 2026-05-06 22:30 | 35.21818 | -80.93993 | 730 ft | 16 kts | 197° |
| 2026-05-06 22:30 | 35.21731 | -80.94064 | 730 ft | 15 kts | 231° |
| 2026-05-06 22:30 | 35.21674 | -80.94157 | 730 ft | 12 kts | 238° |
| 2026-05-06 22:30 | 35.21656 | -80.94254 | 730 ft | 14 kts | 272° |
| 2026-05-06 22:31 | 35.21644 | -80.94360 | 729 ft | 10 kts | 233° |
| 2026-05-06 22:31 | 35.21612 | -80.94430 | 730 ft | 11 kts | 263° |
| 2026-05-06 22:31 | 35.21596 | -80.94548 | 730 ft | 18 kts | 261° |
| 2026-05-06 22:31 | 35.21580 | -80.94722 | 730 ft | 22 kts | 265° |
| 2026-05-06 22:32 | 35.21572 | -80.94886 | 730 ft | 15 kts | 286° |
| 2026-05-06 22:32 | 35.21658 | -80.94936 | 731 ft | 15 kts | 355° |
| 2026-05-06 22:32 | 35.21756 | -80.94945 | 731 ft | 13 kts | 354° |
| 2026-05-06 22:32 | 35.21836 | -80.94956 | 731 ft | 12 kts | 354° |
| 2026-05-06 22:33 | 35.21864 | -80.94981 | 731 ft | 5 kts | 285° |
| 2026-05-06 22:33 | 35.21874 | -80.95039 | 732 ft | 7 kts | 322° |
| 2026-05-06 22:33 | 35.21960 | -80.95051 | 732 ft | 16 kts | 356° |
| 2026-05-06 22:33 | 35.22077 | -80.95061 | 732 ft | 18 kts | 355° |
| 2026-05-06 22:34 | 35.22213 | -80.95074 | 732 ft | 21 kts | 357° |
| 2026-05-06 22:34 | 35.22362 | -80.95086 | 731 ft | 23 kts | 355° |
| 2026-05-06 22:34 | 35.22450 | -80.95093 | 731 ft | 24 kts | 356° |
| 2026-05-06 22:34 | 35.22604 | -80.95106 | 731 ft | 18 kts | 356° |
| 2026-05-06 22:35 | 35.22718 | -80.95126 | 731 ft | 14 kts | 319° |
| 2026-05-06 22:35 | 35.22732 | -80.95194 | 733 ft | 0 kts | 266° |
| 2026-05-06 22:36 | 35.22732 | -80.95196 | 733 ft | 3 kts | 266° |
| 2026-05-06 22:36 | 35.22729 | -80.95252 | 736 ft | 14 kts | 265° |
| 2026-05-06 22:36 | 35.22713 | -80.95320 | 738 ft | 3 kts | 193° |
| 2026-05-06 22:36 | 35.22532 | -80.95302 | 738 ft | 65 kts | 176° |
| 2026-05-06 22:37 | 35.21809 | -80.95240 | 740 ft | 141 kts | 175° |
| 2026-05-06 22:37 | 35.20736 | -80.95143 | 1408 ft | 152 kts | 179° |
| 2026-05-06 22:37 | 35.19642 | -80.95034 | 2087 ft | 165 kts | 180° |
| 2026-05-06 22:37 | 35.18444 | -80.94872 | 2889 ft | 176 kts | 181° |
| 2026-05-06 22:38 | 35.17178 | -80.94680 | 3726 ft | 192 kts | 181° |
| 2026-05-06 22:38 | 35.15760 | -80.94436 | 4448 ft | 215 kts | 179° |
| 2026-05-06 22:38 | 35.14208 | -80.94214 | 5211 ft | 233 kts | 181° |
| 2026-05-06 22:38 | 35.12533 | -80.94011 | 5948 ft | 251 kts | 181° |
| 2026-05-06 22:39 | 35.10738 | -80.93794 | 6700 ft | 266 kts | 181° |
| 2026-05-06 22:39 | 35.08866 | -80.93571 | 7628 ft | 273 kts | 181° |
| 2026-05-06 22:39 | 35.06957 | -80.93329 | 8576 ft | 278 kts | 181° |
| 2026-05-06 22:39 | 35.05047 | -80.93349 | 9411 ft | 276 kts | 191° |
| 2026-05-06 22:40 | 35.03136 | -80.93467 | 10161 ft | 282 kts | 189° |
| 2026-05-06 22:40 | 35.01106 | -80.93591 | 10540 ft | 299 kts | 190° |
| 2026-05-06 22:40 | 34.98973 | -80.93752 | 10975 ft | 314 kts | 190° |
| 2026-05-06 22:40 | 34.96742 | -80.93929 | 11445 ft | 325 kts | 191° |
| 2026-05-06 22:41 | 34.92160 | -80.94316 | 12927 ft | 334 kts | 191° |
| 2026-05-06 22:41 | 34.89918 | -80.94519 | 13688 ft | 337 kts | 191° |
| 2026-05-06 22:41 | 34.87595 | -80.94729 | 14410 ft | 342 kts | 191° |
| 2026-05-06 22:42 | 34.85286 | -80.94941 | 15172 ft | 345 kts | 192° |
| 2026-05-06 22:42 | 34.82871 | -80.95164 | 15898 ft | 350 kts | 192° |
| 2026-05-06 22:42 | 34.80434 | -80.95390 | 16597 ft | 355 kts | 192° |
| 2026-05-06 22:42 | 34.78113 | -80.95605 | 17220 ft | 360 kts | 193° |
| 2026-05-06 22:43 | 34.75649 | -80.95833 | 17890 ft | 365 kts | 193° |
| 2026-05-06 22:43 | 34.73113 | -80.96070 | 18491 ft | 369 kts | 193° |
| 2026-05-06 22:43 | 34.70568 | -80.96304 | 19080 ft | 372 kts | 193° |
| 2026-05-06 22:43 | 34.67968 | -80.96545 | 19617 ft | 376 kts | 193° |
| 2026-05-06 22:44 | 34.65332 | -80.96790 | 19968 ft | 386 kts | 193° |
| 2026-05-06 22:44 | 34.62606 | -80.97047 | 19971 ft | 396 kts | 193° |
| 2026-05-06 22:44 | 34.59974 | -80.97292 | 19983 ft | 401 kts | 192° |
| 2026-05-06 22:44 | 34.57455 | -80.97530 | 19977 ft | 403 kts | 193° |
| 2026-05-06 22:45 | 34.54731 | -80.97787 | 19978 ft | 405 kts | 192° |
| 2026-05-06 22:45 | 34.51913 | -80.98051 | 19977 ft | 406 kts | 192° |
| 2026-05-06 22:45 | 34.49125 | -80.98313 | 19977 ft | 406 kts | 192° |
| 2026-05-06 22:45 | 34.46336 | -80.98577 | 19983 ft | 406 kts | 192° |
| 2026-05-06 22:46 | 34.43534 | -80.98839 | 19989 ft | 406 kts | 192° |
| 2026-05-06 22:46 | 34.40710 | -80.99106 | 19983 ft | 406 kts | 192° |
| 2026-05-06 22:46 | 34.37890 | -80.99372 | 19972 ft | 406 kts | 192° |
| 2026-05-06 22:46 | 34.35091 | -80.99636 | 19972 ft | 406 kts | 192° |
| 2026-05-06 22:47 | 34.32272 | -80.99900 | 19969 ft | 406 kts | 192° |
| 2026-05-06 22:47 | 34.29491 | -81.00163 | 19971 ft | 406 kts | 192° |
| 2026-05-06 22:47 | 34.26669 | -81.00428 | 19972 ft | 406 kts | 192° |
| 2026-05-06 22:47 | 34.23854 | -81.00692 | 19970 ft | 406 kts | 192° |
| 2026-05-06 22:48 | 34.21036 | -81.00957 | 19967 ft | 406 kts | 192° |
| 2026-05-06 22:48 | 34.18222 | -81.01221 | 19967 ft | 405 kts | 192° |
| 2026-05-06 22:48 | 34.15574 | -81.01469 | 19967 ft | 406 kts | 192° |
| 2026-05-06 22:48 | 34.12766 | -81.01731 | 19984 ft | 404 kts | 192° |
| 2026-05-06 22:49 | 34.10008 | -81.01990 | 19971 ft | 405 kts | 192° |
| 2026-05-06 22:49 | 34.07218 | -81.02251 | 19971 ft | 404 kts | 192° |
| 2026-05-06 22:49 | 34.04409 | -81.02511 | 19969 ft | 405 kts | 192° |
| 2026-05-06 22:49 | 34.01663 | -81.02768 | 19972 ft | 405 kts | 192° |
| 2026-05-06 22:50 | 33.98985 | -81.03017 | 19977 ft | 405 kts | 192° |
| 2026-05-06 22:50 | 33.96405 | -81.03016 | 19984 ft | 415 kts | 180° |
| 2026-05-06 22:50 | 33.93530 | -81.02436 | 19986 ft | 418 kts | 177° |
| 2026-05-06 22:50 | 33.90881 | -81.01900 | 19986 ft | 418 kts | 177° |
| 2026-05-06 22:51 | 33.88189 | -81.01313 | 19951 ft | 419 kts | 176° |
| 2026-05-06 22:51 | 33.85327 | -81.00707 | 19971 ft | 418 kts | 177° |
| 2026-05-06 22:51 | 33.82459 | -81.00128 | 19964 ft | 418 kts | 177° |
| 2026-05-06 22:51 | 33.79581 | -80.99551 | 19964 ft | 418 kts | 178° |
| 2026-05-06 22:52 | 33.76704 | -80.98983 | 19958 ft | 417 kts | 178° |
| 2026-05-06 22:52 | 33.73834 | -80.98425 | 19957 ft | 417 kts | 178° |
| 2026-05-06 22:52 | 33.70967 | -80.97866 | 19956 ft | 418 kts | 178° |
| 2026-05-06 22:52 | 33.68097 | -80.97310 | 19955 ft | 417 kts | 178° |
| 2026-05-06 22:53 | 33.65226 | -80.96756 | 19953 ft | 417 kts | 178° |
| 2026-05-06 22:53 | 33.62400 | -80.96236 | 19748 ft | 420 kts | 178° |
| 2026-05-06 22:53 | 33.59700 | -80.95739 | 19418 ft | 416 kts | 178° |
| 2026-05-06 22:53 | 33.56847 | -80.95202 | 19096 ft | 413 kts | 178° |
| 2026-05-06 22:54 | 33.54035 | -80.94669 | 18829 ft | 411 kts | 178° |
| 2026-05-06 22:54 | 33.51219 | -80.94132 | 18539 ft | 408 kts | 178° |
| 2026-05-06 22:54 | 33.48426 | -80.93597 | 18244 ft | 405 kts | 178° |
| 2026-05-06 22:54 | 33.45673 | -80.93071 | 17908 ft | 404 kts | 178° |
| 2026-05-06 22:55 | 33.43116 | -80.92584 | 17601 ft | 402 kts | 178° |
| 2026-05-06 22:55 | 33.40408 | -80.92065 | 17267 ft | 397 kts | 178° |
| 2026-05-06 22:55 | 33.37969 | -80.91593 | 16968 ft | 387 kts | 178° |
| 2026-05-06 22:55 | 33.35358 | -80.91093 | 16639 ft | 383 kts | 178° |
| 2026-05-06 22:56 | 33.32770 | -80.90603 | 16315 ft | 386 kts | 178° |
| 2026-05-06 22:56 | 33.30153 | -80.90100 | 15995 ft | 382 kts | 177° |
| 2026-05-06 22:56 | 33.27571 | -80.89606 | 15673 ft | 380 kts | 177° |
| 2026-05-06 22:56 | 33.24965 | -80.89110 | 15375 ft | 379 kts | 177° |
| 2026-05-06 22:57 | 33.22432 | -80.88626 | 15078 ft | 377 kts | 177° |
| 2026-05-06 22:57 | 33.19856 | -80.88134 | 14776 ft | 372 kts | 177° |
| 2026-05-06 22:57 | 33.17382 | -80.87657 | 14459 ft | 357 kts | 177° |
| 2026-05-06 22:57 | 33.14981 | -80.87195 | 14149 ft | 344 kts | 177° |
| 2026-05-06 22:58 | 33.12918 | -80.86800 | 13883 ft | 334 kts | 177° |
| 2026-05-06 22:58 | 33.10692 | -80.86375 | 13561 ft | 323 kts | 177° |
| 2026-05-06 22:58 | 33.08498 | -80.85957 | 13226 ft | 315 kts | 177° |
| 2026-05-06 22:58 | 33.06497 | -80.85577 | 12904 ft | 310 kts | 178° |
| 2026-05-06 22:59 | 33.04390 | -80.85177 | 12600 ft | 308 kts | 178° |
| 2026-05-06 22:59 | 33.02274 | -80.84778 | 12287 ft | 307 kts | 178° |
| 2026-05-06 22:59 | 33.00156 | -80.84378 | 11973 ft | 306 kts | 178° |
| 2026-05-06 22:59 | 32.98056 | -80.83978 | 11660 ft | 305 kts | 178° |
| 2026-05-06 23:00 | 32.95984 | -80.83585 | 11351 ft | 303 kts | 178° |
| 2026-05-06 23:00 | 32.93916 | -80.83193 | 11049 ft | 302 kts | 178° |
| 2026-05-06 23:00 | 32.91869 | -80.82802 | 11064 ft | 293 kts | 178° |
| 2026-05-06 23:00 | 32.89829 | -80.82387 | 10998 ft | 299 kts | 176° |
| 2026-05-06 23:01 | 32.88446 | -80.82087 | 10996 ft | 299 kts | 176° |
| 2026-05-06 23:01 | 32.86392 | -80.81662 | 10988 ft | 301 kts | 177° |
| 2026-05-06 23:01 | 32.84348 | -80.81256 | 10980 ft | 301 kts | 177° |
| 2026-05-06 23:01 | 32.82333 | -80.80476 | 10953 ft | 315 kts | 154° |
| 2026-05-06 23:02 | 32.80778 | -80.78714 | 10604 ft | 327 kts | 131° |
| 2026-05-06 23:02 | 32.79463 | -80.76558 | 10165 ft | 327 kts | 130° |
| 2026-05-06 23:02 | 32.78169 | -80.74434 | 9679 ft | 326 kts | 130° |
| 2026-05-06 23:02 | 32.76842 | -80.72262 | 9165 ft | 324 kts | 130° |
| 2026-05-06 23:03 | 32.75521 | -80.70117 | 8666 ft | 321 kts | 130° |
| 2026-05-06 23:03 | 32.74176 | -80.68014 | 8177 ft | 316 kts | 135° |
| 2026-05-06 23:03 | 32.72482 | -80.66457 | 7826 ft | 299 kts | 159° |
| 2026-05-06 23:03 | 32.70566 | -80.65732 | 7650 ft | 284 kts | 170° |
| 2026-05-06 23:04 | 32.68656 | -80.65133 | 7479 ft | 284 kts | 172° |
| 2026-05-06 23:04 | 32.66731 | -80.64611 | 7289 ft | 285 kts | 172° |
| 2026-05-06 23:04 | 32.64888 | -80.64108 | 7123 ft | 285 kts | 172° |
| 2026-05-06 23:04 | 32.63210 | -80.63650 | 6954 ft | 285 kts | 173° |
| 2026-05-06 23:05 | 32.61326 | -80.63173 | 6769 ft | 284 kts | 172° |
| 2026-05-06 23:05 | 32.59399 | -80.62675 | 6581 ft | 284 kts | 172° |
| 2026-05-06 23:05 | 32.57504 | -80.62192 | 6397 ft | 282 kts | 172° |
| 2026-05-06 23:05 | 32.55593 | -80.61709 | 6199 ft | 281 kts | 173° |
| 2026-05-06 23:06 | 32.53691 | -80.61233 | 6002 ft | 277 kts | 172° |
| 2026-05-06 23:06 | 32.51894 | -80.60806 | 5831 ft | 268 kts | 173° |
| 2026-05-06 23:06 | 32.50238 | -80.60386 | 5585 ft | 263 kts | 172° |
| 2026-05-06 23:06 | 32.48489 | -80.59946 | 5267 ft | 261 kts | 173° |
| 2026-05-06 23:07 | 32.46757 | -80.59508 | 4940 ft | 259 kts | 172° |
| 2026-05-06 23:07 | 32.45004 | -80.59070 | 4658 ft | 256 kts | 173° |
| 2026-05-06 23:07 | 32.43268 | -80.58643 | 4403 ft | 250 kts | 174° |
| 2026-05-06 23:07 | 32.41651 | -80.58819 | 4253 ft | 230 kts | 202° |
| 2026-05-06 23:08 | 32.40180 | -80.59498 | 4034 ft | 222 kts | 207° |
| 2026-05-06 23:08 | 32.38829 | -80.60254 | 3797 ft | 211 kts | 209° |
| 2026-05-06 23:08 | 32.37559 | -80.60995 | 3542 ft | 201 kts | 210° |
| 2026-05-06 23:08 | 32.36411 | -80.61663 | 3202 ft | 198 kts | 208° |
| 2026-05-06 23:09 | 32.35244 | -80.62320 | 2871 ft | 196 kts | 210° |
| 2026-05-06 23:09 | 32.34022 | -80.63046 | 2509 ft | 194 kts | 207° |
| 2026-05-06 23:09 | 32.32813 | -80.63738 | 2156 ft | 190 kts | 206° |
| 2026-05-06 23:09 | 32.31652 | -80.64413 | 1772 ft | 180 kts | 205° |
| 2026-05-06 23:10 | 32.30620 | -80.65019 | 1584 ft | 156 kts | 206° |
| 2026-05-06 23:10 | 32.29680 | -80.65553 | 1345 ft | 143 kts | 203° |
| 2026-05-06 23:10 | 32.28810 | -80.66061 | 1145 ft | 138 kts | 205° |
| 2026-05-06 23:10 | 32.27968 | -80.66550 | 958 ft | 129 kts | 201° |
| 2026-05-06 23:11 | 32.27224 | -80.66978 | 770 ft | 123 kts | 204° |
| 2026-05-06 23:11 | 32.26444 | -80.67428 | 641 ft | 127 kts | 205° |
| 2026-05-06 23:11 | 32.26020 | -80.67677 | 566 ft | 128 kts | 205° |
| 2026-05-06 23:12 | 32.25912 | -80.67739 | 547 ft | 128 kts | 208° |
| 2026-05-06 23:12 | 32.25579 | -80.67931 | 462 ft | 128 kts | 206° |
| 2026-05-06 23:12 | 32.25262 | -80.68115 | 428 ft | 123 kts | 205° |
| 2026-05-06 23:12 | 32.24483 | -80.68559 | 393 ft | 129 kts | 206° |
| 2026-05-06 23:13 | 32.24202 | -80.68722 | 325 ft | 130 kts | 208° |
| 2026-05-06 23:13 | 32.23790 | -80.68963 | 223 ft | 132 kts | 208° |
| 2026-05-06 23:13 | 32.23029 | -80.69405 | 51 ft | 128 kts | 207° |
| 2026-05-06 23:13 | 32.22323 | -80.69813 | 25 ft | 83 kts | 207° |
| 2026-05-06 23:14 | 32.22040 | -80.69977 | 18 ft | 16 kts | 206° |
| 2026-05-06 23:14 | 32.21949 | -80.70031 | 19 ft | 12 kts | 207° |
| 2026-05-06 23:14 | 32.21926 | -80.70079 | 19 ft | 7 kts | 294° |
| 2026-05-06 23:14 | 32.21953 | -80.70124 | 20 ft | 6 kts | 341° |
| 2026-05-06 23:15 | 32.21991 | -80.70113 | 21 ft | 7 kts | 25° |
| 2026-05-06 23:15 | 32.22038 | -80.70086 | 21 ft | 9 kts | 26° |
| 2026-05-06 23:15 | 32.22102 | -80.70049 | 21 ft | 12 kts | 26° |
| 2026-05-06 23:15 | 32.22184 | -80.70001 | 20 ft | 15 kts | 26° |
| 2026-05-06 23:16 | 32.22241 | -80.69969 | 22 ft | 15 kts | 25° |
| 2026-05-06 23:16 | 32.22339 | -80.69912 | 24 ft | 16 kts | 26° |
| 2026-05-06 23:16 | 32.22450 | -80.69848 | 23 ft | 19 kts | 26° |
| 2026-05-06 23:16 | 32.22553 | -80.69789 | 24 ft | 10 kts | 26° |
| 2026-05-06 23:17 | 32.22584 | -80.69790 | 24 ft | 3 kts | 304° |
| 2026-05-06 23:17 | 32.22583 | -80.69812 | 24 ft | 4 kts | 257° |
| 2026-05-06 23:17 | 32.22577 | -80.69857 | 24 ft | 0 kts | 264° |
| 2026-05-06 23:17 | 32.22578 | -80.69861 | 23 ft | 0 kts | 287° |
| 2026-05-06 23:18 | 32.22578 | -80.69862 | 23 ft | 0 kts | 303° |
| 2026-05-06 23:18 | 32.22580 | -80.69862 | 23 ft | 0 kts | 346° |
| 2026-05-06 23:18 | 32.22602 | -80.69863 | 26 ft | 3 kts | 359° |
| 2026-05-06 23:18 | 32.22604 | -80.69863 | 26 ft | 0 kts | 359° |
| 2026-05-06 23:19 | 32.22606 | -80.69864 | 26 ft | 0 kts | 359° |